createdAt,value
2023-04-04T00:01:47.099Z,93460.19
2023-04-04T00:04:16.215Z,93465.16
2023-04-04T00:06:46.095Z,93449.88
2023-04-04T00:09:16.063Z,93441.69
2023-04-04T00:11:45.588Z,93444.88
2023-04-04T00:14:15.366Z,93445.38
2023-04-04T00:16:45.940Z,93445.66
2023-04-04T00:19:19.032Z,93448.53
2023-04-04T00:21:47.976Z,93438.50
2023-04-04T00:24:17.108Z,93441.91
2023-04-04T00:26:46.110Z,93444.84
2023-04-04T00:29:15.261Z,93448.75
2023-04-04T00:31:45.993Z,93447.72
2023-04-04T00:34:15.061Z,93450.59
2023-04-04T00:36:44.552Z,93451.41
2023-04-04T00:39:14.387Z,93441.13
2023-04-04T00:41:43.642Z,93437.47
2023-04-04T00:44:13.350Z,93436.94
2023-04-04T00:46:42.495Z,93432.19
2023-04-04T00:49:13.018Z,93419.47
2023-04-04T00:51:42.121Z,93430.03
2023-04-04T00:54:12.110Z,93431.41
2023-04-04T00:56:42.121Z,93419.00
2023-04-04T00:59:11.363Z,93412.09
2023-04-04T01:01:41.117Z,93411.34
2023-04-04T01:04:11.092Z,93419.25
2023-04-04T01:06:41.886Z,93407.91
2023-04-04T01:09:11.600Z,93404.97
2023-04-04T01:11:41.929Z,93413.69
2023-04-04T01:14:11.219Z,93415.53
2023-04-04T01:16:41.454Z,93415.00
2023-04-04T01:19:15.886Z,93417.66
2023-04-04T01:21:48.334Z,93421.63
2023-04-04T01:24:20.559Z,93422.41
2023-04-04T01:26:58.385Z,93436.16
2023-04-04T01:29:27.866Z,93432.72
2023-04-04T01:32:05.716Z,93433.25
2023-04-04T01:34:44.255Z,93445.13
2023-04-04T01:37:20.799Z,93435.59
2023-04-04T01:39:55.169Z,93436.44
2023-04-04T01:42:28.740Z,93434.28
2023-04-04T01:44:59.493Z,93433.78
2023-04-04T01:47:41.380Z,93435.63
2023-04-04T01:50:14.780Z,93432.19
2023-04-04T01:52:44.068Z,93430.34
2023-04-04T01:55:13.566Z,93432.19
2023-04-04T01:57:44.876Z,93419.78
2023-04-04T02:00:15.870Z,93415.81
2023-04-04T02:02:45.363Z,93412.63
2023-04-04T02:05:14.732Z,93398.91
2023-04-04T02:07:43.914Z,93398.38
2023-04-04T02:10:23.022Z,93375.13
2023-04-04T02:12:56.060Z,93378.31
2023-04-04T02:15:26.840Z,93380.97
2023-04-04T02:17:56.992Z,93385.19
2023-04-04T02:20:26.470Z,93378.31
2023-04-04T02:22:57.409Z,93379.63
2023-04-04T02:25:27.224Z,93389.94
2023-04-04T02:27:57.817Z,93390.19
2023-04-04T02:30:27.413Z,93394.16
2023-04-04T02:33:00.220Z,93394.41
2023-04-04T02:35:29.316Z,93397.31
2023-04-04T02:37:58.367Z,93412.13
2023-04-04T02:40:39.987Z,93410.28
2023-04-04T02:43:11.061Z,93409.22
2023-04-04T02:45:41.039Z,93414.22
2023-04-04T02:48:36.620Z,93415.81
2023-04-04T02:51:05.878Z,93420.56
2023-04-04T02:53:36.454Z,93417.13
2023-04-04T02:56:18.364Z,93415.81
2023-04-04T02:58:49.562Z,93417.66
2023-04-04T03:01:19.445Z,93425.84
2023-04-04T03:03:49.425Z,93426.38
2023-04-04T03:06:19.305Z,93424.78
2023-04-04T03:08:50.253Z,93425.31
2023-04-04T03:11:21.746Z,93425.31
2023-04-04T03:13:56.209Z,93427.94
2023-04-04T03:16:35.553Z,93433.78
2023-04-04T03:19:04.814Z,93428.50
2023-04-04T03:21:33.836Z,93430.06
2023-04-04T03:24:02.931Z,93418.97
2023-04-04T03:26:32.672Z,93424.50
2023-04-04T03:29:05.053Z,93419.50
2023-04-04T03:31:34.335Z,93420.81
2023-04-04T03:34:04.823Z,93420.56
2023-04-04T03:36:34.056Z,93421.34
2023-04-04T03:39:03.348Z,93420.25
2023-04-04T03:41:32.514Z,93423.69
2023-04-04T03:44:05.206Z,93416.84
2023-04-04T03:46:35.896Z,93413.41
2023-04-04T03:49:06.448Z,93419.75
2023-04-04T03:51:35.660Z,93414.72
2023-04-04T03:54:06.435Z,93431.38
2023-04-04T03:56:36.410Z,93423.72
2023-04-04T03:59:10.447Z,93425.03
2023-04-04T04:01:39.663Z,93426.84
2023-04-04T04:04:09.500Z,93431.34
2023-04-04T04:06:38.740Z,93421.06
2023-04-04T04:09:08.213Z,93426.34
2023-04-04T04:11:37.706Z,93427.91
2023-04-04T04:14:06.817Z,93432.69
2023-04-04T04:16:41.580Z,93433.19
2023-04-04T04:19:13.958Z,93438.25
2023-04-04T04:21:45.128Z,93435.84
2023-04-04T04:24:14.304Z,93433.22
2023-04-04T04:26:44.264Z,93431.91
2023-04-04T04:29:18.229Z,93436.41
2023-04-04T04:31:48.939Z,93436.91
2023-04-04T04:34:19.088Z,93438.75
2023-04-04T04:36:49.598Z,93438.75
2023-04-04T04:39:26.527Z,93440.09
2023-04-04T04:42:18.131Z,93447.78
2023-04-04T04:44:53.389Z,93452.50
2023-04-04T04:47:25.421Z,93459.41
2023-04-04T04:49:55.231Z,93461.50
2023-04-04T04:52:34.812Z,93470.22
2023-04-04T04:55:04.016Z,93471.03
2023-04-04T04:57:35.488Z,93466.53
2023-04-04T05:00:10.898Z,93474.19
2023-04-04T05:02:41.949Z,93477.34
2023-04-04T05:05:12.221Z,93486.63
2023-04-04T05:07:46.868Z,93488.19
2023-04-04T05:10:16.657Z,93492.41
2023-04-04T05:12:46.698Z,93497.16
2023-04-04T05:15:22.791Z,93494.78
2023-04-04T05:17:55.485Z,93512.47
2023-04-04T05:20:24.822Z,93516.69
2023-04-04T05:22:55.524Z,93525.66
2023-04-04T05:25:34.385Z,93515.63
2023-04-04T05:28:04.249Z,93523.50
2023-04-04T05:30:34.634Z,93524.75
2023-04-04T05:33:15.101Z,93530.28
2023-04-04T05:35:50.324Z,93538.09
2023-04-04T05:38:20.396Z,93546.72
2023-04-04T05:40:54.914Z,93544.47
2023-04-04T05:43:25.440Z,93562.34
2023-04-04T05:46:09.260Z,93566.94
2023-04-04T05:48:45.867Z,93572.22
2023-04-04T05:51:15.948Z,93582.00
2023-04-04T05:53:56.446Z,93574.84
2023-04-04T05:56:31.492Z,93594.19
2023-04-04T05:59:01.812Z,93588.84
2023-04-04T06:01:35.276Z,93593.91
2023-04-04T06:04:13.644Z,93601.63
2023-04-04T06:06:42.924Z,93607.91
2023-04-04T06:09:12.852Z,93611.06
2023-04-04T06:11:41.989Z,93613.56
2023-04-04T06:14:15.166Z,93615.06
2023-04-04T06:16:46.580Z,93623.59
2023-04-04T06:19:20.701Z,93622.38
2023-04-04T06:21:50.832Z,93626.34
2023-04-04T06:24:20.595Z,93633.50
2023-04-04T06:26:51.859Z,93629.75
2023-04-04T06:29:24.495Z,93644.53
2023-04-04T06:31:54.004Z,93646.31
2023-04-04T06:34:35.889Z,93638.66
2023-04-04T06:37:05.068Z,93644.75
2023-04-04T06:39:41.346Z,93642.31
2023-04-04T06:42:17.751Z,93646.38
2023-04-04T06:44:50.248Z,93648.66
2023-04-04T06:47:19.368Z,93658.78
2023-04-04T06:49:50.078Z,93665.88
2023-04-04T06:52:19.948Z,93675.09
2023-04-04T06:54:49.325Z,93681.31
2023-04-04T06:57:19.529Z,93689.50
2023-04-04T06:59:49.764Z,93689.31
2023-04-04T07:02:19.001Z,93697.19
2023-04-04T07:04:49.646Z,93702.28
2023-04-04T07:07:18.769Z,93706.56
2023-04-04T07:09:47.867Z,93702.38
2023-04-04T07:12:17.105Z,93700.28
2023-04-04T07:14:46.285Z,93709.56
2023-04-04T07:17:24.231Z,93713.03
2023-04-04T07:19:55.838Z,93717.41
2023-04-04T07:22:25.017Z,93722.09
2023-04-04T07:24:54.878Z,93732.03
2023-04-04T07:27:24.706Z,93744.81
2023-04-04T07:29:53.782Z,93751.38
2023-04-04T07:32:24.592Z,93744.41
2023-04-04T07:34:55.741Z,93747.38
2023-04-04T07:37:26.894Z,93763.78
2023-04-04T07:39:56.096Z,93777.56
2023-04-04T07:42:25.660Z,93779.84
2023-04-04T07:44:54.788Z,93783.47
2023-04-04T07:47:24.029Z,93782.09
2023-04-04T07:49:54.797Z,93788.59
2023-04-04T07:52:23.832Z,93787.84
2023-04-04T07:54:53.577Z,93790.66
2023-04-04T07:57:22.684Z,93787.00
2023-04-04T07:59:51.928Z,93805.19
2023-04-04T08:02:21.567Z,93800.31
2023-04-04T08:04:50.846Z,93798.31
2023-04-04T08:07:21.500Z,93810.75
2023-04-04T08:09:50.659Z,93807.22
2023-04-04T08:12:19.767Z,93799.03
2023-04-04T08:14:48.921Z,93805.28
2023-04-04T08:17:19.415Z,93795.16
2023-04-04T08:19:48.586Z,93798.91
2023-04-04T08:22:17.761Z,93813.06
2023-04-04T08:24:48.705Z,93801.69
2023-04-04T08:27:17.822Z,93826.78
2023-04-04T08:29:48.306Z,93821.31
2023-04-04T08:32:17.414Z,93828.97
2023-04-04T08:34:46.737Z,93829.75
2023-04-04T08:37:16.203Z,93839.22
2023-04-04T08:39:45.636Z,93842.19
2023-04-04T08:42:21.015Z,93845.84
2023-04-04T08:44:54.346Z,93842.88
2023-04-04T08:47:26.022Z,93850.19
2023-04-04T08:49:56.916Z,93849.16
2023-04-04T08:52:29.419Z,93838.63
2023-04-04T08:54:59.060Z,93842.66
2023-04-04T08:57:29.660Z,93845.56
2023-04-04T08:59:59.250Z,93848.91
2023-04-04T09:02:35.763Z,93848.91
2023-04-04T09:05:08.712Z,93856.44
2023-04-04T09:07:39.467Z,93861.31
2023-04-04T09:10:12.036Z,93867.38
2023-04-04T09:12:45.884Z,93864.31
2023-04-04T09:15:15.211Z,93867.19
2023-04-04T09:17:44.404Z,93879.72
2023-04-04T09:20:38.835Z,93876.19
2023-04-04T09:23:09.640Z,93878.69
2023-04-04T09:25:39.184Z,93870.50
2023-04-04T09:28:12.993Z,93877.34
2023-04-04T09:30:42.462Z,93876.88
2023-04-04T09:33:13.443Z,93886.78
2023-04-04T09:35:47.454Z,93876.88
2023-04-04T09:38:18.164Z,93879.84
2023-04-04T09:40:48.617Z,93891.94
2023-04-04T09:43:22.379Z,93885.31
2023-04-04T09:45:52.127Z,93886.03
2023-04-04T09:48:29.064Z,93880.28
2023-04-04T09:51:00.145Z,93888.66
2023-04-04T09:53:29.269Z,93882.09
2023-04-04T09:55:59.318Z,93887.25
2023-04-04T09:58:32.227Z,93894.22
2023-04-04T10:01:02.568Z,93887.84
2023-04-04T10:03:32.596Z,93908.28
2023-04-04T10:06:06.939Z,93891.25
2023-04-04T10:08:38.817Z,93899.91
2023-04-04T10:11:11.371Z,93901.28
2023-04-04T10:13:44.848Z,93906.44
2023-04-04T10:16:15.637Z,93908.03
2023-04-04T10:18:45.675Z,93904.25
2023-04-04T10:21:16.026Z,93909.28
2023-04-04T10:23:48.448Z,93902.22
2023-04-04T10:26:17.686Z,93908.50
2023-04-04T10:28:48.306Z,93907.91
2023-04-04T10:31:21.632Z,93899.81
2023-04-04T10:34:02.085Z,93911.69
2023-04-04T10:36:36.128Z,93921.50
2023-04-04T10:39:14.432Z,93912.59
2023-04-04T10:41:44.525Z,93922.19
2023-04-04T10:44:25.962Z,93926.28
2023-04-04T10:46:57.107Z,93941.25
2023-04-04T10:49:27.174Z,93935.88
2023-04-04T10:51:57.828Z,93935.88
2023-04-04T10:54:29.385Z,93939.19
2023-04-04T10:57:01.003Z,93935.88
2023-04-04T10:59:31.741Z,93939.06
2023-04-04T11:02:02.276Z,93945.44
2023-04-04T11:04:34.541Z,93946.91
2023-04-04T11:07:13.834Z,93938.16
2023-04-04T11:09:56.870Z,93947.94
2023-04-04T11:12:31.716Z,93946.91
2023-04-04T11:15:11.761Z,93946.25
2023-04-04T11:17:45.328Z,93956.16
2023-04-04T11:20:18.273Z,93957.34
2023-04-04T11:22:47.542Z,93957.06
2023-04-04T11:25:34.411Z,93971.03
2023-04-04T11:28:10.529Z,93970.41
2023-04-04T11:30:52.283Z,93976.88
2023-04-04T11:33:32.760Z,93965.19
2023-04-04T11:36:08.613Z,93966.22
2023-04-04T11:38:42.833Z,93969.19
2023-04-04T11:41:15.178Z,93967.28
2023-04-04T11:43:47.326Z,93968.22
2023-04-04T11:46:19.897Z,93970.53
2023-04-04T11:48:49.868Z,93957.63
2023-04-04T11:51:20.623Z,93963.63
2023-04-04T11:53:49.745Z,93966.69
2023-04-04T11:56:21.030Z,93970.38
2023-04-04T11:58:56.084Z,93978.66
2023-04-04T12:01:33.046Z,93980.06
2023-04-04T12:04:03.055Z,93984.00
2023-04-04T12:06:33.429Z,93982.91
2023-04-04T12:09:06.252Z,93972.63
2023-04-04T12:11:36.634Z,93983.69
2023-04-04T12:14:06.022Z,93977.75
2023-04-04T12:16:37.783Z,93988.13
2023-04-04T12:19:10.014Z,93979.25
2023-04-04T12:21:39.203Z,93981.97
2023-04-04T12:24:09.381Z,93987.34
2023-04-04T12:26:39.558Z,93980.59
2023-04-04T12:29:10.294Z,93983.13
2023-04-04T12:31:44.560Z,93988.28
2023-04-04T12:34:19.357Z,93979.94
2023-04-04T12:37:03.123Z,93983.69
2023-04-04T12:39:32.420Z,93984.28
2023-04-04T12:42:03.967Z,93986.84
2023-04-04T12:44:35.770Z,93986.78
2023-04-04T12:47:09.002Z,93982.75
2023-04-04T12:49:43.010Z,93986.88
2023-04-04T12:52:19.887Z,93986.03
2023-04-04T12:54:59.195Z,93989.16
2023-04-04T12:57:37.460Z,93993.22
2023-04-04T13:00:09.361Z,93996.53
2023-04-04T13:02:44.524Z,93998.31
2023-04-04T13:05:15.623Z,93999.75
2023-04-04T13:07:46.397Z,94002.38
2023-04-04T13:10:17.606Z,94005.09
2023-04-04T13:12:59.046Z,94005.25
2023-04-04T13:15:50.692Z,94005.03
2023-04-04T13:18:23.928Z,94021.41
2023-04-04T13:20:55.212Z,94024.53
2023-04-04T13:23:25.141Z,94027.59
2023-04-04T13:25:54.438Z,94023.53
2023-04-04T13:28:23.595Z,94025.06
2023-04-04T13:30:52.774Z,94041.19
2023-04-04T13:33:23.830Z,94037.94
2023-04-04T13:35:52.869Z,94037.06
2023-04-04T13:38:22.000Z,94040.31
2023-04-04T13:40:51.088Z,94040.81
2023-04-04T13:43:20.251Z,94038.66
2023-04-04T13:45:49.670Z,94042.59
2023-04-04T13:48:19.517Z,94049.56
2023-04-04T13:50:51.635Z,94055.19
2023-04-04T13:53:23.868Z,94054.41
2023-04-04T13:56:16.034Z,94065.69
2023-04-04T13:58:42.091Z,94064.94
2023-04-04T14:01:11.398Z,94079.34
2023-04-04T14:03:40.894Z,94080.63
2023-04-04T14:06:11.584Z,94077.97
2023-04-04T14:08:40.851Z,94079.91
2023-04-04T14:11:10.150Z,94081.59
2023-04-04T14:13:39.266Z,94078.91
2023-04-04T14:16:09.805Z,94080.09
2023-04-04T14:18:39.165Z,94088.84
2023-04-04T14:21:08.754Z,94085.22
2023-04-04T14:23:39.380Z,94094.44
2023-04-04T14:26:08.510Z,94087.56
2023-04-04T14:28:38.915Z,94098.91
2023-04-04T14:31:08.199Z,94098.53
2023-04-04T14:33:37.419Z,94103.31
2023-04-04T14:36:06.841Z,94106.00
2023-04-04T14:38:35.927Z,94106.75
2023-04-04T14:41:06.770Z,94101.19
2023-04-04T14:43:35.826Z,94108.78
2023-04-04T14:46:06.771Z,94109.78
2023-04-04T14:48:35.990Z,94119.53
2023-04-04T14:51:05.300Z,94118.13
2023-04-04T14:53:34.350Z,94128.75
2023-04-04T14:56:03.543Z,94132.44
2023-04-04T14:58:34.284Z,94131.63
2023-04-04T15:01:04.241Z,94132.25
2023-04-04T15:03:35.023Z,94128.34
2023-04-04T15:06:05.197Z,94129.16
2023-04-04T15:08:34.306Z,94126.75
2023-04-04T15:11:03.696Z,94145.00
2023-04-04T15:13:35.043Z,94140.97
2023-04-04T15:16:04.534Z,94127.63
2023-04-04T15:18:34.115Z,94136.22
2023-04-04T15:21:03.424Z,94147.16
2023-04-04T15:23:32.675Z,94158.03
2023-04-04T15:26:03.004Z,94150.22
2023-04-04T15:28:33.622Z,94156.22
2023-04-04T15:31:03.261Z,94154.41
2023-04-04T15:33:33.047Z,94149.81
2023-04-04T15:36:02.296Z,94154.44
2023-04-04T15:38:31.490Z,94153.81
2023-04-04T15:41:00.909Z,94158.91
2023-04-04T15:43:29.991Z,94155.31
2023-04-04T15:46:00.839Z,94162.59
2023-04-04T15:48:30.774Z,94170.66
2023-04-04T15:51:02.881Z,94184.94
2023-04-04T15:53:32.094Z,94176.28
2023-04-04T15:56:02.288Z,94174.47
2023-04-04T15:58:31.507Z,94190.81
2023-04-04T16:01:02.439Z,94200.28
2023-04-04T16:03:31.876Z,94187.22
2023-04-04T16:06:02.115Z,94201.28
2023-04-04T16:08:31.503Z,94196.13
2023-04-04T16:11:02.850Z,94203.34
2023-04-04T16:13:32.127Z,94205.53
2023-04-04T16:16:03.056Z,94213.81
2023-04-04T16:18:32.334Z,94222.84
2023-04-04T16:21:03.832Z,94226.91
2023-04-04T16:23:33.968Z,94231.53
2023-04-04T16:26:03.463Z,94236.75
2023-04-04T16:28:32.701Z,94226.69
2023-04-04T16:31:03.695Z,94231.72
2023-04-04T16:33:33.008Z,94232.31
2023-04-04T16:36:02.609Z,94239.34
2023-04-04T16:38:32.027Z,94240.34
2023-04-04T16:41:02.306Z,94240.38
2023-04-04T16:43:32.156Z,94241.19
2023-04-04T16:46:02.812Z,94243.19
2023-04-04T16:48:32.088Z,94246.78
2023-04-04T16:51:01.165Z,94247.22
2023-04-04T16:53:30.691Z,94244.78
2023-04-04T16:55:59.938Z,94255.44
2023-04-04T16:58:28.994Z,94250.81
2023-04-04T17:00:58.263Z,94259.06
2023-04-04T17:03:28.849Z,94257.44
2023-04-04T17:06:01.892Z,94247.00
2023-04-04T17:08:31.102Z,94253.22
2023-04-04T17:11:00.283Z,94258.22
2023-04-04T17:13:29.519Z,94256.22
2023-04-04T17:15:58.680Z,94266.84
2023-04-04T17:18:29.350Z,94265.63
2023-04-04T17:20:58.646Z,94267.44
2023-04-04T17:23:28.174Z,94264.81
2023-04-04T17:25:57.376Z,94270.81
2023-04-04T17:28:26.708Z,94270.22
2023-04-04T17:30:55.812Z,94275.41
2023-04-04T17:33:27.158Z,94269.19
2023-04-04T17:35:57.746Z,94276.22
2023-04-04T17:38:27.150Z,94285.03
2023-04-04T17:40:56.491Z,94289.31
2023-04-04T17:43:25.835Z,94291.31
2023-04-04T17:45:55.275Z,94289.25
2023-04-04T17:48:26.685Z,94307.34
2023-04-04T17:50:57.347Z,94292.91
2023-04-04T17:53:27.304Z,94311.94
2023-04-04T17:55:56.658Z,94309.31
2023-04-04T17:58:26.652Z,94302.50
2023-04-04T18:00:57.753Z,94307.72
2023-04-04T18:03:26.929Z,94307.09
2023-04-04T18:05:57.818Z,94324.00
2023-04-04T18:08:27.072Z,94327.34
2023-04-04T18:10:58.758Z,94324.34
2023-04-04T18:13:28.639Z,94340.06
2023-04-04T18:15:57.745Z,94339.84
2023-04-04T18:18:27.213Z,94349.53
2023-04-04T18:20:58.020Z,94339.22
2023-04-04T18:23:27.693Z,94351.63
2023-04-04T18:25:57.508Z,94349.00
2023-04-04T18:28:26.785Z,94354.97
2023-04-04T18:30:56.020Z,94355.59
2023-04-04T18:33:26.879Z,94353.72
2023-04-04T18:35:58.230Z,94344.56
2023-04-04T18:38:28.908Z,94349.41
2023-04-04T18:40:58.387Z,94341.38
2023-04-04T18:43:27.799Z,94359.22
2023-04-04T18:45:58.405Z,94344.53
2023-04-04T18:48:27.822Z,94355.41
2023-04-04T18:50:58.624Z,94354.00
2023-04-04T18:53:30.293Z,94363.84
2023-04-04T18:56:00.062Z,94363.22
2023-04-04T18:58:29.390Z,94363.84
2023-04-04T19:00:58.856Z,94366.28
2023-04-04T19:03:28.323Z,94368.03
2023-04-04T19:05:59.544Z,94369.63
2023-04-04T19:08:29.634Z,94371.44
2023-04-04T19:10:58.975Z,94383.53
2023-04-04T19:13:28.255Z,94387.59
2023-04-04T19:15:57.422Z,94380.34
2023-04-04T19:18:27.112Z,94384.72
2023-04-04T19:20:56.542Z,94381.06
2023-04-04T19:23:28.045Z,94373.03
2023-04-04T19:25:57.205Z,94373.03
2023-04-04T19:28:26.274Z,94377.69
2023-04-04T19:30:55.801Z,94378.91
2023-04-04T19:33:26.288Z,94382.84
2023-04-04T19:35:59.174Z,94381.63
2023-04-04T19:38:29.972Z,94381.44
2023-04-04T19:41:02.330Z,94377.97
2023-04-04T19:43:32.838Z,94390.56
2023-04-04T19:46:09.247Z,94387.19
2023-04-04T19:48:43.991Z,94392.84
2023-04-04T19:51:38.024Z,94394.25
2023-04-04T19:54:13.055Z,94400.47
2023-04-04T19:56:42.807Z,94392.00
2023-04-04T19:59:49.154Z,94392.00
2023-04-04T20:02:52.603Z,94384.44
2023-04-04T20:05:54.970Z,94392.13
2023-04-04T20:08:24.015Z,94385.88
2023-04-04T20:10:58.881Z,94393.03
2023-04-04T20:13:28.127Z,94389.81
2023-04-04T20:16:01.347Z,94397.47
2023-04-04T20:18:33.095Z,94394.22
2023-04-04T20:21:04.545Z,94388.38
2023-04-04T20:23:36.228Z,94401.09
2023-04-04T20:26:10.685Z,94387.25
2023-04-04T20:28:39.780Z,94385.88
2023-04-04T20:31:12.429Z,94387.25
2023-04-04T20:33:42.350Z,94385.00
2023-04-04T20:36:14.002Z,94388.91
2023-04-04T20:38:43.785Z,94391.28
2023-04-04T20:41:23.461Z,94392.44
2023-04-04T20:43:55.123Z,94396.25
2023-04-04T20:46:25.712Z,94394.59
2023-04-04T20:48:56.897Z,94393.88
2023-04-04T20:51:32.397Z,94385.22
2023-04-04T20:54:03.541Z,94399.09
2023-04-04T20:56:56.734Z,94398.13
2023-04-04T20:59:32.242Z,94399.13
2023-04-04T21:02:09.116Z,94396.84
2023-04-04T21:04:39.088Z,94388.63
2023-04-04T21:07:08.709Z,94397.72
2023-04-04T21:09:37.954Z,94398.66
2023-04-04T21:12:09.117Z,94404.88
2023-04-04T21:14:38.152Z,94402.88
2023-04-04T21:17:08.061Z,94398.47
2023-04-04T21:19:37.192Z,94409.19
2023-04-04T21:22:08.670Z,94404.16
2023-04-04T21:24:38.603Z,94403.75
2023-04-04T21:27:10.067Z,94411.41
2023-04-04T21:29:39.134Z,94413.03
2023-04-04T21:32:08.745Z,94413.13
2023-04-04T21:34:38.361Z,94418.97
2023-04-04T21:37:07.586Z,94412.69
2023-04-04T21:39:38.146Z,94403.16
2023-04-04T21:42:09.187Z,94409.34
2023-04-04T21:44:38.703Z,94413.25
2023-04-04T21:47:07.745Z,94411.50
2023-04-04T21:49:36.788Z,94412.38
2023-04-04T21:52:05.880Z,94417.00
2023-04-04T21:54:35.535Z,94407.06
2023-04-04T21:57:04.626Z,94413.31
2023-04-04T21:59:35.314Z,94420.75
2023-04-04T22:02:04.591Z,94426.06
2023-04-04T22:04:33.700Z,94421.78
2023-04-04T22:07:02.728Z,94418.59
2023-04-04T22:09:31.853Z,94422.66
2023-04-04T22:12:03.192Z,94418.28
2023-04-04T22:14:32.288Z,94422.38
2023-04-04T22:17:03.289Z,94424.47
2023-04-04T22:19:43.408Z,94420.97
2023-04-04T22:22:13.262Z,94414.66
2023-04-04T22:24:42.281Z,94412.94
2023-04-04T22:27:15.004Z,94418.16
2023-04-04T22:29:44.036Z,94414.38
2023-04-04T22:32:14.471Z,94418.69
2023-04-04T22:34:43.658Z,94429.72
2023-04-04T22:37:12.739Z,94425.31
2023-04-04T22:39:43.111Z,94426.13
2023-04-04T22:42:12.939Z,94425.78
2023-04-04T22:44:42.110Z,94422.56
2023-04-04T22:47:12.233Z,94423.91
2023-04-04T22:49:48.366Z,94423.69
2023-04-04T22:52:19.035Z,94424.50
2023-04-04T22:54:48.118Z,94412.50
2023-04-04T22:57:17.176Z,94423.56
2023-04-04T22:59:46.878Z,94429.13
2023-04-04T23:02:16.446Z,94431.75
2023-04-04T23:04:47.693Z,94433.75
2023-04-04T23:07:16.874Z,94429.31
2023-04-04T23:09:46.014Z,94420.50
2023-04-04T23:12:15.073Z,94425.34
2023-04-04T23:14:45.216Z,94419.69
2023-04-04T23:17:14.720Z,94425.41
2023-04-04T23:19:43.746Z,94426.16
2023-04-04T23:22:14.298Z,94431.75
2023-04-04T23:24:44.891Z,94424.03
2023-04-04T23:27:14.097Z,94422.38
2023-04-04T23:29:43.218Z,94430.94
2023-04-04T23:32:13.017Z,94425.78
2023-04-04T23:34:42.236Z,94431.47
2023-04-04T23:37:11.249Z,94421.13
2023-04-04T23:39:41.650Z,94420.56
2023-04-04T23:42:11.134Z,94429.72
2023-04-04T23:44:40.645Z,94418.78
2023-04-04T23:47:09.961Z,94422.63
2023-04-04T23:49:39.107Z,94418.97
2023-04-04T23:52:08.420Z,94415.72
2023-04-04T23:54:37.500Z,94418.59
2023-04-04T23:57:08.094Z,94428.75
2023-04-04T23:59:37.145Z,94422.09
